sensor_id;sensor_type;location;lat;lon;timestamp;temperature;humidity
6724;DHT22;3399;52.530;13.304;2023-06-10T00:01:00;17.10;99.90
6724;DHT22;3399;52.530;13.304;2023-06-10T00:03:26;17.00;99.90
6724;DHT22;3399;52.530;13.304;2023-06-10T00:05:52;17.00;99.90
6724;DHT22;3399;52.530;13.304;2023-06-10T00:08:17;16.90;99.90
6724;DHT22;3399;52.530;13.304;2023-06-10T00:10:45;16.90;99.90
6724;DHT22;3399;52.530;13.304;2023-06-10T00:13:10;16.70;99.90
6724;DHT22;3399;52.530;13.304;2023-06-10T00:15:39;16.60;99.90
6724;DHT22;3399;52.530;13.304;2023-06-10T00:18:04;16.70;99.90
6724;DHT22;3399;52.530;13.304;2023-06-10T00:20:30;16.60;99.90
6724;DHT22;3399;52.530;13.304;2023-06-10T00:22:57;16.50;99.90
6724;DHT22;3399;52.530;13.304;2023-06-10T00:25:24;16.50;99.90
6724;DHT22;3399;52.530;13.304;2023-06-10T00:27:51;16.40;99.90
6724;DHT22;3399;52.530;13.304;2023-06-10T00:30:16;16.40;99.90
6724;DHT22;3399;52.530;13.304;2023-06-10T00:32:42;16.40;99.90
6724;DHT22;3399;52.530;13.304;2023-06-10T00:35:07;16.50;99.90
6724;DHT22;3399;52.530;13.304;2023-06-10T00:37:33;16.50;99.90
6724;DHT22;3399;52.530;13.304;2023-06-10T00:40:01;16.50;99.90
6724;DHT22;3399;52.530;13.304;2023-06-10T00:42:27;16.40;99.90
6724;DHT22;3399;52.530;13.304;2023-06-10T00:44:54;16.50;99.90
6724;DHT22;3399;52.530;13.304;2023-06-10T00:47:20;16.50;99.90
6724;DHT22;3399;52.530;13.304;2023-06-10T00:49:46;16.50;99.90
6724;DHT22;3399;52.530;13.304;2023-06-10T00:52:14;16.40;99.90
6724;DHT22;3399;52.530;13.304;2023-06-10T00:54:41;16.30;99.90
6724;DHT22;3399;52.530;13.304;2023-06-10T00:57:07;16.20;99.90
6724;DHT22;3399;52.530;13.304;2023-06-10T00:59:32;16.20;99.90
6724;DHT22;3399;52.530;13.304;2023-06-10T01:01:58;16.10;99.90
6724;DHT22;3399;52.530;13.304;2023-06-10T01:04:24;16.10;99.90
6724;DHT22;3399;52.530;13.304;2023-06-10T01:07:09;16.10;99.90
6724;DHT22;3399;52.530;13.304;2023-06-10T01:09:48;16.10;99.90
6724;DHT22;3399;52.530;13.304;2023-06-10T01:12:22;16.10;99.90
6724;DHT22;3399;52.530;13.304;2023-06-10T01:14:52;16.10;99.90
6724;DHT22;3399;52.530;13.304;2023-06-10T01:17:18;16.10;99.90
6724;DHT22;3399;52.530;13.304;2023-06-10T01:19:44;16.20;99.90
6724;DHT22;3399;52.530;13.304;2023-06-10T01:22:09;16.10;99.90
6724;DHT22;3399;52.530;13.304;2023-06-10T01:24:36;16.10;99.90
6724;DHT22;3399;52.530;13.304;2023-06-10T01:27:05;16.10;99.90
6724;DHT22;3399;52.530;13.304;2023-06-10T01:29:40;16.00;99.90
6724;DHT22;3399;52.530;13.304;2023-06-10T01:32:20;16.00;99.90
6724;DHT22;3399;52.530;13.304;2023-06-10T01:34:48;15.90;99.90
6724;DHT22;3399;52.530;13.304;2023-06-10T01:37:18;15.90;99.90
6724;DHT22;3399;52.530;13.304;2023-06-10T01:39:45;16.00;99.90
6724;DHT22;3399;52.530;13.304;2023-06-10T01:42:11;15.90;99.90
6724;DHT22;3399;52.530;13.304;2023-06-10T01:44:38;16.00;99.90
6724;DHT22;3399;52.530;13.304;2023-06-10T01:47:04;16.10;99.90
6724;DHT22;3399;52.530;13.304;2023-06-10T01:49:30;16.00;99.90
6724;DHT22;3399;52.530;13.304;2023-06-10T01:51:55;16.00;99.90
6724;DHT22;3399;52.530;13.304;2023-06-10T01:54:21;15.90;99.90
6724;DHT22;3399;52.530;13.304;2023-06-10T01:56:46;15.70;99.90
6724;DHT22;3399;52.530;13.304;2023-06-10T01:59:12;15.80;99.90
6724;DHT22;3399;52.530;13.304;2023-06-10T02:01:37;15.90;99.90
6724;DHT22;3399;52.530;13.304;2023-06-10T02:04:03;15.80;99.90
6724;DHT22;3399;52.530;13.304;2023-06-10T02:06:28;15.80;99.90
6724;DHT22;3399;52.530;13.304;2023-06-10T02:08:54;15.80;99.90
6724;DHT22;3399;52.530;13.304;2023-06-10T02:11:19;15.70;99.90
6724;DHT22;3399;52.530;13.304;2023-06-10T02:13:45;15.60;99.90
6724;DHT22;3399;52.530;13.304;2023-06-10T02:16:11;15.60;99.90
6724;DHT22;3399;52.530;13.304;2023-06-10T02:18:38;15.50;99.90
6724;DHT22;3399;52.530;13.304;2023-06-10T02:21:06;15.60;99.90
6724;DHT22;3399;52.530;13.304;2023-06-10T02:23:32;15.60;99.90
6724;DHT22;3399;52.530;13.304;2023-06-10T02:25:57;15.70;99.90
6724;DHT22;3399;52.530;13.304;2023-06-10T02:28:23;15.70;99.90
6724;DHT22;3399;52.530;13.304;2023-06-10T02:30:48;15.70;99.90
6724;DHT22;3399;52.530;13.304;2023-06-10T02:33:14;15.70;99.90
6724;DHT22;3399;52.530;13.304;2023-06-10T02:35:40;15.60;99.90
6724;DHT22;3399;52.530;13.304;2023-06-10T02:38:05;15.60;99.90
6724;DHT22;3399;52.530;13.304;2023-06-10T02:40:31;15.50;99.90
6724;DHT22;3399;52.530;13.304;2023-06-10T02:42:57;15.60;99.90
6724;DHT22;3399;52.530;13.304;2023-06-10T02:45:23;15.60;99.90
6724;DHT22;3399;52.530;13.304;2023-06-10T02:47:49;15.50;99.90
6724;DHT22;3399;52.530;13.304;2023-06-10T02:50:14;15.50;99.90
6724;DHT22;3399;52.530;13.304;2023-06-10T02:52:40;15.50;99.90
6724;DHT22;3399;52.530;13.304;2023-06-10T02:55:06;15.50;99.90
6724;DHT22;3399;52.530;13.304;2023-06-10T02:57:32;15.50;99.90
6724;DHT22;3399;52.530;13.304;2023-06-10T02:59:57;15.50;99.90
6724;DHT22;3399;52.530;13.304;2023-06-10T03:02:24;15.40;99.90
6724;DHT22;3399;52.530;13.304;2023-06-10T03:04:56;15.40;99.90
6724;DHT22;3399;52.530;13.304;2023-06-10T03:07:22;15.40;99.90
6724;DHT22;3399;52.530;13.304;2023-06-10T03:09:48;15.40;99.90
6724;DHT22;3399;52.530;13.304;2023-06-10T03:12:14;15.40;99.90
6724;DHT22;3399;52.530;13.304;2023-06-10T03:14:39;15.40;99.90
6724;DHT22;3399;52.530;13.304;2023-06-10T03:17:05;15.30;99.90
6724;DHT22;3399;52.530;13.304;2023-06-10T03:19:31;15.30;99.90
6724;DHT22;3399;52.530;13.304;2023-06-10T03:22:08;15.40;99.90
6724;DHT22;3399;52.530;13.304;2023-06-10T03:24:34;15.40;99.90
6724;DHT22;3399;52.530;13.304;2023-06-10T03:27:01;15.40;99.90
6724;DHT22;3399;52.530;13.304;2023-06-10T03:29:27;15.40;99.90
6724;DHT22;3399;52.530;13.304;2023-06-10T03:31:52;15.30;99.90
6724;DHT22;3399;52.530;13.304;2023-06-10T03:34:18;15.40;99.90
6724;DHT22;3399;52.530;13.304;2023-06-10T03:36:43;15.40;99.90
6724;DHT22;3399;52.530;13.304;2023-06-10T03:39:10;15.30;99.90
6724;DHT22;3399;52.530;13.304;2023-06-10T03:41:35;15.30;99.90
6724;DHT22;3399;52.530;13.304;2023-06-10T03:44:01;15.40;99.90
6724;DHT22;3399;52.530;13.304;2023-06-10T03:46:26;15.40;99.90
6724;DHT22;3399;52.530;13.304;2023-06-10T03:48:52;15.40;99.90
6724;DHT22;3399;52.530;13.304;2023-06-10T03:51:17;15.40;99.90
6724;DHT22;3399;52.530;13.304;2023-06-10T03:53:42;15.40;99.90
6724;DHT22;3399;52.530;13.304;2023-06-10T03:56:08;15.40;99.90
6724;DHT22;3399;52.530;13.304;2023-06-10T03:58:33;15.40;99.90
6724;DHT22;3399;52.530;13.304;2023-06-10T04:00:59;15.30;99.90
6724;DHT22;3399;52.530;13.304;2023-06-10T04:03:25;15.30;99.90
6724;DHT22;3399;52.530;13.304;2023-06-10T04:05:51;15.30;99.90
6724;DHT22;3399;52.530;13.304;2023-06-10T04:08:17;15.30;99.90
6724;DHT22;3399;52.530;13.304;2023-06-10T04:10:43;15.30;99.90
6724;DHT22;3399;52.530;13.304;2023-06-10T04:13:08;15.40;99.90
6724;DHT22;3399;52.530;13.304;2023-06-10T04:15:34;15.30;99.90
6724;DHT22;3399;52.530;13.304;2023-06-10T04:18:00;15.30;99.90
6724;DHT22;3399;52.530;13.304;2023-06-10T04:20:28;15.30;99.90
6724;DHT22;3399;52.530;13.304;2023-06-10T04:22:54;15.50;99.90
6724;DHT22;3399;52.530;13.304;2023-06-10T04:25:20;15.50;99.90
6724;DHT22;3399;52.530;13.304;2023-06-10T04:27:45;15.50;99.90
6724;DHT22;3399;52.530;13.304;2023-06-10T04:30:11;15.40;99.90
6724;DHT22;3399;52.530;13.304;2023-06-10T04:32:37;15.40;99.90
6724;DHT22;3399;52.530;13.304;2023-06-10T04:35:02;15.40;99.90
6724;DHT22;3399;52.530;13.304;2023-06-10T04:37:28;15.50;99.90
6724;DHT22;3399;52.530;13.304;2023-06-10T04:39:54;15.60;99.90
6724;DHT22;3399;52.530;13.304;2023-06-10T04:42:20;15.60;99.90
6724;DHT22;3399;52.530;13.304;2023-06-10T04:44:45;15.70;99.90
6724;DHT22;3399;52.530;13.304;2023-06-10T04:47:10;15.70;99.90
6724;DHT22;3399;52.530;13.304;2023-06-10T04:49:36;15.60;99.90
6724;DHT22;3399;52.530;13.304;2023-06-10T04:52:02;15.70;99.90
6724;DHT22;3399;52.530;13.304;2023-06-10T04:54:29;15.70;99.90
6724;DHT22;3399;52.530;13.304;2023-06-10T04:56:55;15.70;99.90
6724;DHT22;3399;52.530;13.304;2023-06-10T04:59:20;15.70;99.90
6724;DHT22;3399;52.530;13.304;2023-06-10T05:01:45;15.80;99.90
6724;DHT22;3399;52.530;13.304;2023-06-10T05:04:11;15.80;99.90
6724;DHT22;3399;52.530;13.304;2023-06-10T05:06:36;15.70;99.90
6724;DHT22;3399;52.530;13.304;2023-06-10T05:09:02;15.80;99.90
6724;DHT22;3399;52.530;13.304;2023-06-10T05:11:28;15.90;99.90
6724;DHT22;3399;52.530;13.304;2023-06-10T05:13:53;16.00;99.90
6724;DHT22;3399;52.530;13.304;2023-06-10T05:16:18;15.80;99.90
6724;DHT22;3399;52.530;13.304;2023-06-10T05:18:44;15.80;99.90
6724;DHT22;3399;52.530;13.304;2023-06-10T05:21:10;15.80;99.90
6724;DHT22;3399;52.530;13.304;2023-06-10T05:23:35;15.80;99.90
6724;DHT22;3399;52.530;13.304;2023-06-10T05:26:01;15.80;99.90
6724;DHT22;3399;52.530;13.304;2023-06-10T05:28:26;15.90;99.90
6724;DHT22;3399;52.530;13.304;2023-06-10T05:30:51;16.00;99.90
6724;DHT22;3399;52.530;13.304;2023-06-10T05:33:17;15.90;99.90
6724;DHT22;3399;52.530;13.304;2023-06-10T05:35:43;15.90;99.90
6724;DHT22;3399;52.530;13.304;2023-06-10T05:38:08;15.90;99.90
6724;DHT22;3399;52.530;13.304;2023-06-10T05:40:34;15.90;99.90
6724;DHT22;3399;52.530;13.304;2023-06-10T05:42:59;15.90;99.90
6724;DHT22;3399;52.530;13.304;2023-06-10T05:45:25;16.10;99.90
6724;DHT22;3399;52.530;13.304;2023-06-10T05:47:50;16.20;99.90
6724;DHT22;3399;52.530;13.304;2023-06-10T05:50:16;16.20;99.90
6724;DHT22;3399;52.530;13.304;2023-06-10T05:52:42;16.30;99.90
6724;DHT22;3399;52.530;13.304;2023-06-10T05:55:08;16.40;99.90
6724;DHT22;3399;52.530;13.304;2023-06-10T05:57:34;16.60;99.90
6724;DHT22;3399;52.530;13.304;2023-06-10T05:59:59;16.80;99.90
6724;DHT22;3399;52.530;13.304;2023-06-10T06:02:25;17.00;99.90
6724;DHT22;3399;52.530;13.304;2023-06-10T06:04:50;17.10;99.90
6724;DHT22;3399;52.530;13.304;2023-06-10T06:07:16;17.20;99.90
6724;DHT22;3399;52.530;13.304;2023-06-10T06:09:41;17.30;99.90
6724;DHT22;3399;52.530;13.304;2023-06-10T06:12:07;17.50;99.90
6724;DHT22;3399;52.530;13.304;2023-06-10T06:14:37;17.60;99.90
6724;DHT22;3399;52.530;13.304;2023-06-10T06:17:03;17.60;99.90
6724;DHT22;3399;52.530;13.304;2023-06-10T06:19:29;17.70;99.90
6724;DHT22;3399;52.530;13.304;2023-06-10T06:21:54;17.80;99.90
6724;DHT22;3399;52.530;13.304;2023-06-10T06:24:20;17.80;99.90
6724;DHT22;3399;52.530;13.304;2023-06-10T06:26:46;17.80;99.90
6724;DHT22;3399;52.530;13.304;2023-06-10T06:29:11;17.90;99.90
6724;DHT22;3399;52.530;13.304;2023-06-10T06:31:37;18.10;99.90
6724;DHT22;3399;52.530;13.304;2023-06-10T06:34:02;18.10;99.90
6724;DHT22;3399;52.530;13.304;2023-06-10T06:36:28;18.10;99.90
6724;DHT22;3399;52.530;13.304;2023-06-10T06:38:53;18.20;99.90
6724;DHT22;3399;52.530;13.304;2023-06-10T06:41:19;18.40;99.90
6724;DHT22;3399;52.530;13.304;2023-06-10T06:43:44;18.50;99.90
6724;DHT22;3399;52.530;13.304;2023-06-10T06:46:10;18.60;99.90
6724;DHT22;3399;52.530;13.304;2023-06-10T06:48:35;18.60;99.90
6724;DHT22;3399;52.530;13.304;2023-06-10T06:51:01;18.90;99.90
6724;DHT22;3399;52.530;13.304;2023-06-10T06:53:26;18.90;99.90
6724;DHT22;3399;52.530;13.304;2023-06-10T06:55:52;18.90;99.90
6724;DHT22;3399;52.530;13.304;2023-06-10T06:58:17;19.00;99.90
6724;DHT22;3399;52.530;13.304;2023-06-10T07:00:43;19.00;99.90
6724;DHT22;3399;52.530;13.304;2023-06-10T07:03:08;19.00;99.90
6724;DHT22;3399;52.530;13.304;2023-06-10T07:05:34;19.10;99.90
6724;DHT22;3399;52.530;13.304;2023-06-10T07:07:59;19.10;99.90
6724;DHT22;3399;52.530;13.304;2023-06-10T07:10:26;19.10;99.90
6724;DHT22;3399;52.530;13.304;2023-06-10T07:12:52;19.20;99.90
6724;DHT22;3399;52.530;13.304;2023-06-10T07:15:17;19.20;99.90
6724;DHT22;3399;52.530;13.304;2023-06-10T07:17:43;19.20;99.90
6724;DHT22;3399;52.530;13.304;2023-06-10T07:20:09;19.30;99.90
6724;DHT22;3399;52.530;13.304;2023-06-10T07:22:35;19.50;99.90
6724;DHT22;3399;52.530;13.304;2023-06-10T07:25:01;19.60;99.90
6724;DHT22;3399;52.530;13.304;2023-06-10T07:27:26;19.70;99.90
6724;DHT22;3399;52.530;13.304;2023-06-10T07:29:52;19.80;99.90
6724;DHT22;3399;52.530;13.304;2023-06-10T07:32:18;19.90;99.90
6724;DHT22;3399;52.530;13.304;2023-06-10T07:34:45;20.10;99.90
6724;DHT22;3399;52.530;13.304;2023-06-10T07:37:14;20.20;99.90
6724;DHT22;3399;52.530;13.304;2023-06-10T07:39:39;20.40;99.90
6724;DHT22;3399;52.530;13.304;2023-06-10T07:42:05;20.60;99.90
6724;DHT22;3399;52.530;13.304;2023-06-10T07:44:31;20.60;99.90
6724;DHT22;3399;52.530;13.304;2023-06-10T07:46:56;20.80;99.90
6724;DHT22;3399;52.530;13.304;2023-06-10T07:49:23;20.70;99.90
6724;DHT22;3399;52.530;13.304;2023-06-10T07:51:50;20.80;99.90
6724;DHT22;3399;52.530;13.304;2023-06-10T07:54:15;20.90;99.90
6724;DHT22;3399;52.530;13.304;2023-06-10T07:56:41;21.10;99.90
6724;DHT22;3399;52.530;13.304;2023-06-10T07:59:06;21.20;99.90
6724;DHT22;3399;52.530;13.304;2023-06-10T08:01:32;21.20;99.90
6724;DHT22;3399;52.530;13.304;2023-06-10T08:03:58;21.20;99.90
6724;DHT22;3399;52.530;13.304;2023-06-10T08:06:23;21.30;99.90
6724;DHT22;3399;52.530;13.304;2023-06-10T08:08:49;21.30;99.90
6724;DHT22;3399;52.530;13.304;2023-06-10T08:11:14;21.40;99.90
6724;DHT22;3399;52.530;13.304;2023-06-10T08:13:40;21.40;99.90
6724;DHT22;3399;52.530;13.304;2023-06-10T08:16:06;21.40;99.90
6724;DHT22;3399;52.530;13.304;2023-06-10T08:18:31;21.50;99.90
6724;DHT22;3399;52.530;13.304;2023-06-10T08:20:57;21.50;99.90
6724;DHT22;3399;52.530;13.304;2023-06-10T08:23:23;21.50;99.90
6724;DHT22;3399;52.530;13.304;2023-06-10T08:25:48;21.80;99.90
6724;DHT22;3399;52.530;13.304;2023-06-10T08:28:14;21.80;99.90
6724;DHT22;3399;52.530;13.304;2023-06-10T08:30:40;21.80;99.90
6724;DHT22;3399;52.530;13.304;2023-06-10T08:33:05;21.80;99.90
6724;DHT22;3399;52.530;13.304;2023-06-10T08:35:31;21.90;99.90
6724;DHT22;3399;52.530;13.304;2023-06-10T08:37:56;21.90;99.90
6724;DHT22;3399;52.530;13.304;2023-06-10T08:40:22;21.90;99.90
6724;DHT22;3399;52.530;13.304;2023-06-10T08:42:58;22.10;99.90
6724;DHT22;3399;52.530;13.304;2023-06-10T08:45:30;22.30;99.90
6724;DHT22;3399;52.530;13.304;2023-06-10T08:48:02;22.40;99.90
6724;DHT22;3399;52.530;13.304;2023-06-10T08:50:30;22.50;99.90
6724;DHT22;3399;52.530;13.304;2023-06-10T08:52:58;22.60;99.90
6724;DHT22;3399;52.530;13.304;2023-06-10T08:55:29;22.70;99.90
6724;DHT22;3399;52.530;13.304;2023-06-10T08:57:56;22.70;99.90
6724;DHT22;3399;52.530;13.304;2023-06-10T09:00:22;22.80;99.90
6724;DHT22;3399;52.530;13.304;2023-06-10T09:02:48;22.90;99.90
6724;DHT22;3399;52.530;13.304;2023-06-10T09:05:15;23.00;99.90
6724;DHT22;3399;52.530;13.304;2023-06-10T09:07:41;23.10;99.90
6724;DHT22;3399;52.530;13.304;2023-06-10T09:10:07;23.00;99.90
6724;DHT22;3399;52.530;13.304;2023-06-10T09:12:34;22.90;99.90
6724;DHT22;3399;52.530;13.304;2023-06-10T09:15:01;22.90;99.90
6724;DHT22;3399;52.530;13.304;2023-06-10T09:17:27;22.90;99.90
6724;DHT22;3399;52.530;13.304;2023-06-10T09:19:52;22.90;99.90
6724;DHT22;3399;52.530;13.304;2023-06-10T09:22:21;23.00;99.90
6724;DHT22;3399;52.530;13.304;2023-06-10T09:24:47;23.00;99.90
6724;DHT22;3399;52.530;13.304;2023-06-10T09:27:13;23.20;99.90
6724;DHT22;3399;52.530;13.304;2023-06-10T09:29:51;23.00;99.90
6724;DHT22;3399;52.530;13.304;2023-06-10T09:32:18;23.00;99.90
6724;DHT22;3399;52.530;13.304;2023-06-10T09:34:44;22.90;99.90
6724;DHT22;3399;52.530;13.304;2023-06-10T09:37:12;22.90;99.90
6724;DHT22;3399;52.530;13.304;2023-06-10T09:39:40;22.90;99.90
6724;DHT22;3399;52.530;13.304;2023-06-10T09:42:18;22.90;99.90
6724;DHT22;3399;52.530;13.304;2023-06-10T09:44:51;22.90;99.90
6724;DHT22;3399;52.530;13.304;2023-06-10T09:47:21;22.90;99.90
6724;DHT22;3399;52.530;13.304;2023-06-10T09:49:48;22.90;99.90
6724;DHT22;3399;52.530;13.304;2023-06-10T09:52:13;22.80;99.90
6724;DHT22;3399;52.530;13.304;2023-06-10T09:54:39;22.70;99.90
6724;DHT22;3399;52.530;13.304;2023-06-10T09:57:08;22.60;99.90
6724;DHT22;3399;52.530;13.304;2023-06-10T09:59:37;22.60;99.90
6724;DHT22;3399;52.530;13.304;2023-06-10T10:02:03;22.70;99.90
6724;DHT22;3399;52.530;13.304;2023-06-10T10:04:29;22.80;99.90
6724;DHT22;3399;52.530;13.304;2023-06-10T10:06:58;22.70;99.90
6724;DHT22;3399;52.530;13.304;2023-06-10T10:09:24;22.70;99.90
6724;DHT22;3399;52.530;13.304;2023-06-10T10:11:52;22.70;99.90
6724;DHT22;3399;52.530;13.304;2023-06-10T10:14:20;22.70;99.90
6724;DHT22;3399;52.530;13.304;2023-06-10T10:16:46;22.80;99.90
6724;DHT22;3399;52.530;13.304;2023-06-10T10:19:20;22.90;99.90
6724;DHT22;3399;52.530;13.304;2023-06-10T10:21:53;22.80;99.90
6724;DHT22;3399;52.530;13.304;2023-06-10T10:24:21;22.90;99.90
6724;DHT22;3399;52.530;13.304;2023-06-10T10:26:49;23.10;99.90
6724;DHT22;3399;52.530;13.304;2023-06-10T10:29:38;22.90;99.90
6724;DHT22;3399;52.530;13.304;2023-06-10T10:32:08;23.10;99.90
6724;DHT22;3399;52.530;13.304;2023-06-10T10:37:26;22.90;99.90
6724;DHT22;3399;52.530;13.304;2023-06-10T10:39:52;22.80;99.90
6724;DHT22;3399;52.530;13.304;2023-06-10T10:42:18;22.70;99.90
6724;DHT22;3399;52.530;13.304;2023-06-10T10:44:44;22.70;99.90
6724;DHT22;3399;52.530;13.304;2023-06-10T10:47:10;22.80;99.90
6724;DHT22;3399;52.530;13.304;2023-06-10T10:49:37;22.90;99.90
6724;DHT22;3399;52.530;13.304;2023-06-10T10:52:03;22.90;99.90
6724;DHT22;3399;52.530;13.304;2023-06-10T10:54:33;22.80;99.90
6724;DHT22;3399;52.530;13.304;2023-06-10T10:57:19;22.80;99.90
6724;DHT22;3399;52.530;13.304;2023-06-10T11:02:17;22.70;99.90
6724;DHT22;3399;52.530;13.304;2023-06-10T11:04:47;22.80;99.90
6724;DHT22;3399;52.530;13.304;2023-06-10T11:07:13;22.80;99.90
6724;DHT22;3399;52.530;13.304;2023-06-10T11:15:11;22.90;99.90
6724;DHT22;3399;52.530;13.304;2023-06-10T11:17:37;22.90;99.90
6724;DHT22;3399;52.530;13.304;2023-06-10T11:20:02;22.90;99.90
6724;DHT22;3399;52.530;13.304;2023-06-10T11:22:28;23.20;99.90
6724;DHT22;3399;52.530;13.304;2023-06-10T11:24:53;23.30;99.90
6724;DHT22;3399;52.530;13.304;2023-06-10T11:27:21;23.40;99.90
6724;DHT22;3399;52.530;13.304;2023-06-10T11:29:57;23.60;99.90
6724;DHT22;3399;52.530;13.304;2023-06-10T11:32:25;23.70;99.90
6724;DHT22;3399;52.530;13.304;2023-06-10T11:34:53;23.70;99.90
6724;DHT22;3399;52.530;13.304;2023-06-10T11:37:20;23.70;99.90
6724;DHT22;3399;52.530;13.304;2023-06-10T11:39:46;23.80;99.90
6724;DHT22;3399;52.530;13.304;2023-06-10T11:42:11;23.80;99.90
6724;DHT22;3399;52.530;13.304;2023-06-10T11:44:37;24.00;99.90
6724;DHT22;3399;52.530;13.304;2023-06-10T11:47:03;24.10;99.90
6724;DHT22;3399;52.530;13.304;2023-06-10T11:49:29;24.20;99.90
6724;DHT22;3399;52.530;13.304;2023-06-10T11:51:55;24.20;98.60
6724;DHT22;3399;52.530;13.304;2023-06-10T11:54:21;24.20;99.70
6724;DHT22;3399;52.530;13.304;2023-06-10T11:56:47;23.90;99.90
6724;DHT22;3399;52.530;13.304;2023-06-10T11:59:13;23.90;99.80
6724;DHT22;3399;52.530;13.304;2023-06-10T12:01:44;23.80;99.80
6724;DHT22;3399;52.530;13.304;2023-06-10T12:04:12;24.00;99.90
6724;DHT22;3399;52.530;13.304;2023-06-10T12:06:42;24.10;99.90
6724;DHT22;3399;52.530;13.304;2023-06-10T12:09:19;24.40;99.90
6724;DHT22;3399;52.530;13.304;2023-06-10T12:11:48;24.70;99.90
6724;DHT22;3399;52.530;13.304;2023-06-10T12:14:13;25.00;99.90
6724;DHT22;3399;52.530;13.304;2023-06-10T12:16:39;25.40;99.90
6724;DHT22;3399;52.530;13.304;2023-06-10T12:19:05;25.60;99.90
6724;DHT22;3399;52.530;13.304;2023-06-10T12:21:33;25.80;99.90
6724;DHT22;3399;52.530;13.304;2023-06-10T12:24:08;25.80;99.90
6724;DHT22;3399;52.530;13.304;2023-06-10T12:26:35;26.00;99.20
6724;DHT22;3399;52.530;13.304;2023-06-10T12:29:02;26.20;97.50
6724;DHT22;3399;52.530;13.304;2023-06-10T12:32:00;26.30;96.70
6724;DHT22;3399;52.530;13.304;2023-06-10T12:34:33;26.40;96.60
6724;DHT22;3399;52.530;13.304;2023-06-10T12:36:59;26.60;96.60
6724;DHT22;3399;52.530;13.304;2023-06-10T12:39:25;27.00;95.10
6724;DHT22;3399;52.530;13.304;2023-06-10T12:41:52;27.00;94.90
6724;DHT22;3399;52.530;13.304;2023-06-10T12:44:17;26.90;94.00
6724;DHT22;3399;52.530;13.304;2023-06-10T12:46:43;26.70;93.70
6724;DHT22;3399;52.530;13.304;2023-06-10T12:49:19;26.70;93.10
6724;DHT22;3399;52.530;13.304;2023-06-10T12:51:44;27.20;92.60
6724;DHT22;3399;52.530;13.304;2023-06-10T12:54:10;27.20;91.80
6724;DHT22;3399;52.530;13.304;2023-06-10T12:56:36;27.60;91.20
6724;DHT22;3399;52.530;13.304;2023-06-10T12:59:01;27.80;90.70
6724;DHT22;3399;52.530;13.304;2023-06-10T13:01:28;27.90;91.00
6724;DHT22;3399;52.530;13.304;2023-06-10T13:03:53;27.90;90.80
6724;DHT22;3399;52.530;13.304;2023-06-10T13:06:19;27.90;90.10
6724;DHT22;3399;52.530;13.304;2023-06-10T13:08:45;27.80;90.20
6724;DHT22;3399;52.530;13.304;2023-06-10T13:11:12;27.70;90.70
6724;DHT22;3399;52.530;13.304;2023-06-10T13:13:38;27.70;90.20
6724;DHT22;3399;52.530;13.304;2023-06-10T13:16:03;27.90;90.80
6724;DHT22;3399;52.530;13.304;2023-06-10T13:18:29;28.00;90.80
6724;DHT22;3399;52.530;13.304;2023-06-10T13:20:54;28.10;90.30
6724;DHT22;3399;52.530;13.304;2023-06-10T13:23:20;28.20;90.10
6724;DHT22;3399;52.530;13.304;2023-06-10T13:25:45;28.30;90.30
6724;DHT22;3399;52.530;13.304;2023-06-10T13:28:11;28.40;89.90
6724;DHT22;3399;52.530;13.304;2023-06-10T13:30:37;28.50;90.50
6724;DHT22;3399;52.530;13.304;2023-06-10T13:33:02;28.70;88.50
6724;DHT22;3399;52.530;13.304;2023-06-10T13:35:28;28.70;87.60
6724;DHT22;3399;52.530;13.304;2023-06-10T13:37:53;28.70;87.90
6724;DHT22;3399;52.530;13.304;2023-06-10T13:40:18;28.90;86.70
6724;DHT22;3399;52.530;13.304;2023-06-10T13:42:45;28.80;87.70
6724;DHT22;3399;52.530;13.304;2023-06-10T13:45:15;29.00;86.20
6724;DHT22;3399;52.530;13.304;2023-06-10T13:47:41;29.10;84.90
6724;DHT22;3399;52.530;13.304;2023-06-10T13:50:07;29.10;85.10
6724;DHT22;3399;52.530;13.304;2023-06-10T13:52:33;29.40;83.40
6724;DHT22;3399;52.530;13.304;2023-06-10T13:54:58;29.20;81.40
6724;DHT22;3399;52.530;13.304;2023-06-10T13:57:24;29.20;82.50
6724;DHT22;3399;52.530;13.304;2023-06-10T13:59:49;29.30;82.50
6724;DHT22;3399;52.530;13.304;2023-06-10T14:02:16;29.60;80.80
6724;DHT22;3399;52.530;13.304;2023-06-10T14:04:42;29.60;80.60
6724;DHT22;3399;52.530;13.304;2023-06-10T14:07:07;29.30;82.10
6724;DHT22;3399;52.530;13.304;2023-06-10T14:09:33;29.10;82.20
6724;DHT22;3399;52.530;13.304;2023-06-10T14:11:58;29.20;81.60
6724;DHT22;3399;52.530;13.304;2023-06-10T14:14:23;29.70;78.30
6724;DHT22;3399;52.530;13.304;2023-06-10T14:16:49;30.10;77.70
6724;DHT22;3399;52.530;13.304;2023-06-10T14:19:14;30.00;78.00
6724;DHT22;3399;52.530;13.304;2023-06-10T14:21:40;30.10;78.40
6724;DHT22;3399;52.530;13.304;2023-06-10T14:24:06;29.80;78.20
6724;DHT22;3399;52.530;13.304;2023-06-10T14:26:31;29.60;80.00
6724;DHT22;3399;52.530;13.304;2023-06-10T14:28:58;30.20;79.20
6724;DHT22;3399;52.530;13.304;2023-06-10T14:31:23;30.70;77.80
6724;DHT22;3399;52.530;13.304;2023-06-10T14:33:49;30.90;75.10
6724;DHT22;3399;52.530;13.304;2023-06-10T14:36:14;31.00;74.10
6724;DHT22;3399;52.530;13.304;2023-06-10T14:38:40;31.00;70.10
6724;DHT22;3399;52.530;13.304;2023-06-10T14:41:05;31.20;65.20
6724;DHT22;3399;52.530;13.304;2023-06-10T14:43:31;31.40;65.00
6724;DHT22;3399;52.530;13.304;2023-06-10T14:45:56;31.60;61.50
6724;DHT22;3399;52.530;13.304;2023-06-10T14:48:22;31.80;61.30
6724;DHT22;3399;52.530;13.304;2023-06-10T14:50:48;31.80;62.60
6724;DHT22;3399;52.530;13.304;2023-06-10T14:53:17;32.00;62.60
6724;DHT22;3399;52.530;13.304;2023-06-10T14:55:42;32.00;61.10
6724;DHT22;3399;52.530;13.304;2023-06-10T14:58:08;32.10;59.70
6724;DHT22;3399;52.530;13.304;2023-06-10T15:00:33;32.10;60.20
6724;DHT22;3399;52.530;13.304;2023-06-10T15:02:59;32.40;60.00
6724;DHT22;3399;52.530;13.304;2023-06-10T15:05:25;32.20;57.50
6724;DHT22;3399;52.530;13.304;2023-06-10T15:07:50;32.20;58.20
6724;DHT22;3399;52.530;13.304;2023-06-10T15:10:16;32.10;57.90
6724;DHT22;3399;52.530;13.304;2023-06-10T15:12:41;32.00;57.20
6724;DHT22;3399;52.530;13.304;2023-06-10T15:15:07;31.90;56.70
6724;DHT22;3399;52.530;13.304;2023-06-10T15:17:32;32.20;54.60
6724;DHT22;3399;52.530;13.304;2023-06-10T15:19:58;31.90;54.90
6724;DHT22;3399;52.530;13.304;2023-06-10T15:22:23;32.00;54.70
6724;DHT22;3399;52.530;13.304;2023-06-10T15:24:49;32.10;53.30
6724;DHT22;3399;52.530;13.304;2023-06-10T15:27:14;31.90;52.90
6724;DHT22;3399;52.530;13.304;2023-06-10T15:29:40;32.10;53.20
6724;DHT22;3399;52.530;13.304;2023-06-10T15:32:06;32.20;53.60
6724;DHT22;3399;52.530;13.304;2023-06-10T15:34:31;32.30;53.40
6724;DHT22;3399;52.530;13.304;2023-06-10T15:36:57;31.90;52.50
6724;DHT22;3399;52.530;13.304;2023-06-10T15:39:22;32.10;53.10
6724;DHT22;3399;52.530;13.304;2023-06-10T15:41:49;32.00;51.90
6724;DHT22;3399;52.530;13.304;2023-06-10T15:44:15;32.10;51.80
6724;DHT22;3399;52.530;13.304;2023-06-10T15:46:40;32.50;51.30
6724;DHT22;3399;52.530;13.304;2023-06-10T15:49:06;33.00;50.30
6724;DHT22;3399;52.530;13.304;2023-06-10T15:51:31;33.00;48.20